sensor_id;sensor_type;location;lat;lon;timestamp;P1;durP1;ratioP1;P2;durP2;ratioP2
52786;SDS011;38661;53.152;5.846;2023-02-22T00:00:52;83.20;;;36.10;;
52786;SDS011;38661;53.152;5.846;2023-02-22T00:03:27;90.07;;;35.10;;
52786;SDS011;38661;53.152;5.846;2023-02-22T00:06:05;92.63;;;36.15;;
52786;SDS011;38661;53.152;5.846;2023-02-22T00:08:32;91.88;;;36.05;;
52786;SDS011;38661;53.152;5.846;2023-02-22T00:11:00;79.18;;;32.40;;
52786;SDS011;38661;53.152;5.846;2023-02-22T00:13:28;90.38;;;35.65;;
52786;SDS011;38661;53.152;5.846;2023-02-22T00:15:57;83.70;;;34.40;;
52786;SDS011;38661;53.152;5.846;2023-02-22T00:18:24;84.97;;;36.28;;
52786;SDS011;38661;53.152;5.846;2023-02-22T00:20:57;82.65;;;33.63;;
52786;SDS011;38661;53.152;5.846;2023-02-22T00:23:24;103.72;;;39.05;;
52786;SDS011;38661;53.152;5.846;2023-02-22T00:25:52;91.28;;;35.40;;
52786;SDS011;38661;53.152;5.846;2023-02-22T00:28:19;81.50;;;33.17;;
52786;SDS011;38661;53.152;5.846;2023-02-22T00:30:45;82.05;;;33.45;;
52786;SDS011;38661;53.152;5.846;2023-02-22T00:33:12;79.55;;;31.50;;
52786;SDS011;38661;53.152;5.846;2023-02-22T00:35:39;82.57;;;32.65;;
52786;SDS011;38661;53.152;5.846;2023-02-22T00:38:06;83.28;;;32.13;;
52786;SDS011;38661;53.152;5.846;2023-02-22T00:40:32;77.85;;;32.58;;
52786;SDS011;38661;53.152;5.846;2023-02-22T00:43:00;82.22;;;31.40;;
52786;SDS011;38661;53.152;5.846;2023-02-22T00:45:28;75.47;;;32.15;;
52786;SDS011;38661;53.152;5.846;2023-02-22T00:47:55;76.75;;;32.00;;
52786;SDS011;38661;53.152;5.846;2023-02-22T00:50:22;75.38;;;30.70;;
52786;SDS011;38661;53.152;5.846;2023-02-22T00:52:50;83.82;;;34.25;;
52786;SDS011;38661;53.152;5.846;2023-02-22T00:55:21;73.25;;;30.20;;
52786;SDS011;38661;53.152;5.846;2023-02-22T00:57:48;83.88;;;32.78;;
52786;SDS011;38661;53.152;5.846;2023-02-22T01:00:22;76.68;;;30.98;;
52786;SDS011;38661;53.152;5.846;2023-02-22T01:02:54;77.57;;;31.65;;
52786;SDS011;38661;53.152;5.846;2023-02-22T01:05:21;92.65;;;32.50;;
52786;SDS011;38661;53.152;5.846;2023-02-22T01:07:49;74.22;;;31.33;;
52786;SDS011;38661;53.152;5.846;2023-02-22T01:10:16;86.65;;;31.48;;
52786;SDS011;38661;53.152;5.846;2023-02-22T01:12:44;75.75;;;31.20;;
52786;SDS011;38661;53.152;5.846;2023-02-22T01:15:11;81.32;;;30.95;;
52786;SDS011;38661;53.152;5.846;2023-02-22T01:17:37;78.28;;;30.95;;
52786;SDS011;38661;53.152;5.846;2023-02-22T01:20:08;82.78;;;32.97;;
52786;SDS011;38661;53.152;5.846;2023-02-22T01:22:38;74.45;;;30.55;;
52786;SDS011;38661;53.152;5.846;2023-02-22T01:25:06;76.55;;;30.38;;
52786;SDS011;38661;53.152;5.846;2023-02-22T01:27:33;80.85;;;31.42;;
52786;SDS011;38661;53.152;5.846;2023-02-22T01:29:59;75.45;;;30.00;;
52786;SDS011;38661;53.152;5.846;2023-02-22T01:32:25;77.10;;;30.98;;
52786;SDS011;38661;53.152;5.846;2023-02-22T01:34:52;71.50;;;29.77;;
52786;SDS011;38661;53.152;5.846;2023-02-22T01:37:18;73.93;;;31.23;;
52786;SDS011;38661;53.152;5.846;2023-02-22T01:39:44;74.05;;;28.98;;
52786;SDS011;38661;53.152;5.846;2023-02-22T01:42:11;69.35;;;28.25;;
52786;SDS011;38661;53.152;5.846;2023-02-22T01:44:37;70.03;;;29.23;;
52786;SDS011;38661;53.152;5.846;2023-02-22T01:47:05;61.50;;;25.02;;
52786;SDS011;38661;53.152;5.846;2023-02-22T01:49:43;63.30;;;25.50;;
52786;SDS011;38661;53.152;5.846;2023-02-22T01:52:18;57.08;;;24.20;;
52786;SDS011;38661;53.152;5.846;2023-02-22T01:54:48;51.75;;;22.67;;
52786;SDS011;38661;53.152;5.846;2023-02-22T01:59:46;54.90;;;23.98;;
52786;SDS011;38661;53.152;5.846;2023-02-22T02:02:15;51.72;;;22.88;;
52786;SDS011;38661;53.152;5.846;2023-02-22T02:04:42;52.08;;;22.42;;
52786;SDS011;38661;53.152;5.846;2023-02-22T02:07:10;51.15;;;22.65;;
52786;SDS011;38661;53.152;5.846;2023-02-22T02:09:50;51.60;;;23.02;;
52786;SDS011;38661;53.152;5.846;2023-02-22T02:12:25;51.10;;;22.65;;
52786;SDS011;38661;53.152;5.846;2023-02-22T02:15:10;46.90;;;20.92;;
52786;SDS011;38661;53.152;5.846;2023-02-22T02:17:48;50.45;;;22.52;;
52786;SDS011;38661;53.152;5.846;2023-02-22T02:20:21;49.22;;;21.27;;
52786;SDS011;38661;53.152;5.846;2023-02-22T02:23:21;46.75;;;20.92;;
52786;SDS011;38661;53.152;5.846;2023-02-22T02:28:35;50.92;;;21.55;;
52786;SDS011;38661;53.152;5.846;2023-02-22T02:39:58;50.85;;;21.90;;
52786;SDS011;38661;53.152;5.846;2023-02-22T02:42:43;46.35;;;20.98;;
52786;SDS011;38661;53.152;5.846;2023-02-22T02:45:22;47.20;;;21.92;;
52786;SDS011;38661;53.152;5.846;2023-02-22T02:47:57;48.17;;;21.13;;
52786;SDS011;38661;53.152;5.846;2023-02-22T02:50:26;49.13;;;20.42;;
52786;SDS011;38661;53.152;5.846;2023-02-22T02:52:56;48.35;;;21.60;;
52786;SDS011;38661;53.152;5.846;2023-02-22T02:55:27;45.88;;;21.02;;
52786;SDS011;38661;53.152;5.846;2023-02-22T02:57:54;45.03;;;21.13;;
52786;SDS011;38661;53.152;5.846;2023-02-22T03:00:21;51.75;;;21.15;;
52786;SDS011;38661;53.152;5.846;2023-02-22T03:11:21;47.63;;;22.20;;
52786;SDS011;38661;53.152;5.846;2023-02-22T03:14:04;48.55;;;23.13;;
52786;SDS011;38661;53.152;5.846;2023-02-22T03:19:37;54.45;;;23.13;;
52786;SDS011;38661;53.152;5.846;2023-02-22T03:22:11;49.50;;;22.05;;
52786;SDS011;38661;53.152;5.846;2023-02-22T03:24:50;56.78;;;24.30;;
52786;SDS011;38661;53.152;5.846;2023-02-22T03:27:31;55.10;;;22.73;;
52786;SDS011;38661;53.152;5.846;2023-02-22T03:30:33;49.75;;;21.05;;
52786;SDS011;38661;53.152;5.846;2023-02-22T03:33:06;52.28;;;21.98;;
52786;SDS011;38661;53.152;5.846;2023-02-22T03:35:41;56.33;;;22.25;;
52786;SDS011;38661;53.152;5.846;2023-02-22T03:38:12;51.28;;;22.17;;
52786;SDS011;38661;53.152;5.846;2023-02-22T03:40:44;56.15;;;23.88;;
52786;SDS011;38661;53.152;5.846;2023-02-22T03:43:13;46.88;;;22.13;;
52786;SDS011;38661;53.152;5.846;2023-02-22T03:45:51;48.72;;;21.90;;
52786;SDS011;38661;53.152;5.846;2023-02-22T03:48:37;56.05;;;22.55;;
52786;SDS011;38661;53.152;5.846;2023-02-22T03:51:11;55.42;;;22.17;;
52786;SDS011;38661;53.152;5.846;2023-02-22T03:53:40;53.50;;;21.33;;
52786;SDS011;38661;53.152;5.846;2023-02-22T03:56:16;51.35;;;22.30;;
52786;SDS011;38661;53.152;5.846;2023-02-22T03:58:46;51.75;;;22.35;;
52786;SDS011;38661;53.152;5.846;2023-02-22T04:01:13;53.85;;;22.80;;
52786;SDS011;38661;53.152;5.846;2023-02-22T04:03:39;57.20;;;22.50;;
52786;SDS011;38661;53.152;5.846;2023-02-22T04:06:06;57.00;;;23.05;;
52786;SDS011;38661;53.152;5.846;2023-02-22T04:08:33;55.47;;;21.75;;
52786;SDS011;38661;53.152;5.846;2023-02-22T04:10:59;59.88;;;24.00;;
52786;SDS011;38661;53.152;5.846;2023-02-22T04:13:25;51.17;;;22.75;;
52786;SDS011;38661;53.152;5.846;2023-02-22T04:15:52;57.10;;;23.42;;
52786;SDS011;38661;53.152;5.846;2023-02-22T04:18:18;49.70;;;21.13;;
52786;SDS011;38661;53.152;5.846;2023-02-22T04:20:43;59.17;;;23.70;;
52786;SDS011;38661;53.152;5.846;2023-02-22T04:23:09;51.40;;;22.38;;
52786;SDS011;38661;53.152;5.846;2023-02-22T04:25:35;57.00;;;23.40;;
52786;SDS011;38661;53.152;5.846;2023-02-22T04:28:01;58.22;;;22.70;;
52786;SDS011;38661;53.152;5.846;2023-02-22T04:30:27;51.85;;;21.73;;
52786;SDS011;38661;53.152;5.846;2023-02-22T04:32:54;52.58;;;22.88;;
52786;SDS011;38661;53.152;5.846;2023-02-22T04:35:21;49.95;;;20.55;;
52786;SDS011;38661;53.152;5.846;2023-02-22T04:37:47;55.20;;;22.77;;
52786;SDS011;38661;53.152;5.846;2023-02-22T04:40:12;59.35;;;29.55;;
52786;SDS011;38661;53.152;5.846;2023-02-22T04:42:40;51.63;;;24.60;;
52786;SDS011;38661;53.152;5.846;2023-02-22T04:45:07;51.97;;;24.17;;
52786;SDS011;38661;53.152;5.846;2023-02-22T04:47:33;48.88;;;21.17;;
52786;SDS011;38661;53.152;5.846;2023-02-22T04:50:03;52.17;;;23.17;;
52786;SDS011;38661;53.152;5.846;2023-02-22T04:52:30;40.55;;;19.67;;
52786;SDS011;38661;53.152;5.846;2023-02-22T04:54:55;41.88;;;19.85;;
52786;SDS011;38661;53.152;5.846;2023-02-22T04:57:21;36.15;;;17.67;;
52786;SDS011;38661;53.152;5.846;2023-02-22T04:59:47;32.40;;;17.23;;
52786;SDS011;38661;53.152;5.846;2023-02-22T05:02:13;33.85;;;17.30;;
52786;SDS011;38661;53.152;5.846;2023-02-22T05:04:38;37.85;;;18.38;;
52786;SDS011;38661;53.152;5.846;2023-02-22T05:07:04;33.90;;;17.58;;
52786;SDS011;38661;53.152;5.846;2023-02-22T05:09:30;34.33;;;17.63;;
52786;SDS011;38661;53.152;5.846;2023-02-22T05:11:55;35.35;;;18.13;;
52786;SDS011;38661;53.152;5.846;2023-02-22T05:14:21;37.92;;;17.20;;
52786;SDS011;38661;53.152;5.846;2023-02-22T05:16:50;28.98;;;16.48;;
52786;SDS011;38661;53.152;5.846;2023-02-22T05:19:18;29.50;;;16.42;;
52786;SDS011;38661;53.152;5.846;2023-02-22T05:21:43;29.95;;;15.65;;
52786;SDS011;38661;53.152;5.846;2023-02-22T05:24:09;31.65;;;16.63;;
52786;SDS011;38661;53.152;5.846;2023-02-22T05:26:35;32.97;;;17.20;;
52786;SDS011;38661;53.152;5.846;2023-02-22T05:29:00;31.70;;;17.58;;
52786;SDS011;38661;53.152;5.846;2023-02-22T05:31:26;29.63;;;15.80;;
52786;SDS011;38661;53.152;5.846;2023-02-22T05:33:51;29.50;;;15.40;;
52786;SDS011;38661;53.152;5.846;2023-02-22T05:36:17;32.97;;;17.15;;
52786;SDS011;38661;53.152;5.846;2023-02-22T05:38:43;31.13;;;17.45;;
52786;SDS011;38661;53.152;5.846;2023-02-22T05:41:12;32.80;;;17.73;;
52786;SDS011;38661;53.152;5.846;2023-02-22T05:43:38;32.58;;;17.95;;
52786;SDS011;38661;53.152;5.846;2023-02-22T05:46:04;29.67;;;17.05;;
52786;SDS011;38661;53.152;5.846;2023-02-22T05:48:31;34.00;;;18.73;;
52786;SDS011;38661;53.152;5.846;2023-02-22T05:50:56;31.50;;;18.20;;
52786;SDS011;38661;53.152;5.846;2023-02-22T05:53:22;35.90;;;18.38;;
52786;SDS011;38661;53.152;5.846;2023-02-22T05:55:49;34.58;;;19.15;;
52786;SDS011;38661;53.152;5.846;2023-02-22T05:58:15;32.35;;;18.55;;
52786;SDS011;38661;53.152;5.846;2023-02-22T06:00:41;35.03;;;18.83;;
52786;SDS011;38661;53.152;5.846;2023-02-22T06:03:07;35.08;;;18.52;;
52786;SDS011;38661;53.152;5.846;2023-02-22T06:05:34;35.70;;;20.13;;
52786;SDS011;38661;53.152;5.846;2023-02-22T06:08:01;37.25;;;21.80;;
52786;SDS011;38661;53.152;5.846;2023-02-22T06:10:27;33.05;;;19.08;;
52786;SDS011;38661;53.152;5.846;2023-02-22T06:12:53;38.22;;;20.77;;
52786;SDS011;38661;53.152;5.846;2023-02-22T06:15:21;42.97;;;21.80;;
52786;SDS011;38661;53.152;5.846;2023-02-22T06:17:47;39.28;;;20.25;;
52786;SDS011;38661;53.152;5.846;2023-02-22T06:20:14;40.05;;;22.55;;
52786;SDS011;38661;53.152;5.846;2023-02-22T06:22:42;41.75;;;23.77;;
52786;SDS011;38661;53.152;5.846;2023-02-22T06:25:09;39.92;;;23.65;;
52786;SDS011;38661;53.152;5.846;2023-02-22T06:27:37;40.08;;;21.10;;
52786;SDS011;38661;53.152;5.846;2023-02-22T06:30:03;45.50;;;23.70;;
52786;SDS011;38661;53.152;5.846;2023-02-22T06:32:29;41.35;;;23.23;;
52786;SDS011;38661;53.152;5.846;2023-02-22T06:34:55;41.03;;;22.95;;
52786;SDS011;38661;53.152;5.846;2023-02-22T06:37:21;45.33;;;24.65;;
52786;SDS011;38661;53.152;5.846;2023-02-22T06:39:47;43.63;;;24.58;;
52786;SDS011;38661;53.152;5.846;2023-02-22T06:42:12;43.65;;;23.25;;
52786;SDS011;38661;53.152;5.846;2023-02-22T06:44:38;50.58;;;26.88;;
52786;SDS011;38661;53.152;5.846;2023-02-22T06:47:04;48.63;;;25.10;;
52786;SDS011;38661;53.152;5.846;2023-02-22T06:49:30;49.85;;;27.77;;
52786;SDS011;38661;53.152;5.846;2023-02-22T06:51:55;57.22;;;29.55;;
52786;SDS011;38661;53.152;5.846;2023-02-22T06:54:21;56.47;;;29.58;;
52786;SDS011;38661;53.152;5.846;2023-02-22T06:56:47;60.83;;;31.27;;
52786;SDS011;38661;53.152;5.846;2023-02-22T06:59:14;58.45;;;30.45;;
52786;SDS011;38661;53.152;5.846;2023-02-22T07:01:40;57.30;;;30.15;;
52786;SDS011;38661;53.152;5.846;2023-02-22T07:04:06;57.60;;;30.20;;
52786;SDS011;38661;53.152;5.846;2023-02-22T07:06:32;61.05;;;32.45;;
52786;SDS011;38661;53.152;5.846;2023-02-22T07:08:58;62.47;;;31.75;;
52786;SDS011;38661;53.152;5.846;2023-02-22T07:11:25;63.70;;;31.05;;
52786;SDS011;38661;53.152;5.846;2023-02-22T07:13:51;64.05;;;33.45;;
52786;SDS011;38661;53.152;5.846;2023-02-22T07:16:19;63.05;;;33.20;;
52786;SDS011;38661;53.152;5.846;2023-02-22T07:18:45;71.78;;;35.97;;
52786;SDS011;38661;53.152;5.846;2023-02-22T07:21:11;74.68;;;37.88;;
52786;SDS011;38661;53.152;5.846;2023-02-22T07:23:37;76.50;;;38.60;;
52786;SDS011;38661;53.152;5.846;2023-02-22T07:26:03;76.05;;;37.80;;
52786;SDS011;38661;53.152;5.846;2023-02-22T07:28:32;71.55;;;36.08;;
52786;SDS011;38661;53.152;5.846;2023-02-22T07:30:57;71.18;;;35.13;;
52786;SDS011;38661;53.152;5.846;2023-02-22T07:33:23;75.20;;;39.47;;
52786;SDS011;38661;53.152;5.846;2023-02-22T07:35:49;74.90;;;37.85;;
52786;SDS011;38661;53.152;5.846;2023-02-22T07:38:16;75.35;;;39.08;;
52786;SDS011;38661;53.152;5.846;2023-02-22T07:40:43;77.80;;;37.95;;
52786;SDS011;38661;53.152;5.846;2023-02-22T07:43:17;74.97;;;38.65;;
52786;SDS011;38661;53.152;5.846;2023-02-22T07:45:44;81.55;;;40.45;;
52786;SDS011;38661;53.152;5.846;2023-02-22T07:48:11;80.38;;;38.25;;
52786;SDS011;38661;53.152;5.846;2023-02-22T07:50:37;86.72;;;41.85;;
52786;SDS011;38661;53.152;5.846;2023-02-22T07:53:04;90.00;;;42.33;;
52786;SDS011;38661;53.152;5.846;2023-02-22T07:55:32;88.22;;;43.20;;
52786;SDS011;38661;53.152;5.846;2023-02-22T07:57:59;100.95;;;49.13;;
52786;SDS011;38661;53.152;5.846;2023-02-22T08:00:28;92.63;;;44.72;;
52786;SDS011;38661;53.152;5.846;2023-02-22T08:03:04;100.25;;;48.63;;
52786;SDS011;38661;53.152;5.846;2023-02-22T08:05:32;98.75;;;47.45;;
52786;SDS011;38661;53.152;5.846;2023-02-22T08:07:59;106.88;;;49.70;;
52786;SDS011;38661;53.152;5.846;2023-02-22T08:10:25;106.78;;;49.65;;
52786;SDS011;38661;53.152;5.846;2023-02-22T08:12:52;108.03;;;48.17;;
52786;SDS011;38661;53.152;5.846;2023-02-22T08:15:23;103.20;;;47.75;;
52786;SDS011;38661;53.152;5.846;2023-02-22T08:17:50;120.38;;;51.55;;
52786;SDS011;38661;53.152;5.846;2023-02-22T08:20:17;122.43;;;53.63;;
52786;SDS011;38661;53.152;5.846;2023-02-22T08:22:43;117.45;;;53.35;;
52786;SDS011;38661;53.152;5.846;2023-02-22T08:25:10;119.22;;;54.25;;
52786;SDS011;38661;53.152;5.846;2023-02-22T08:27:36;113.38;;;54.38;;
52786;SDS011;38661;53.152;5.846;2023-02-22T08:30:02;125.03;;;55.45;;
52786;SDS011;38661;53.152;5.846;2023-02-22T08:32:29;117.68;;;57.30;;
52786;SDS011;38661;53.152;5.846;2023-02-22T08:34:59;126.55;;;57.67;;
52786;SDS011;38661;53.152;5.846;2023-02-22T08:37:26;127.13;;;59.42;;
52786;SDS011;38661;53.152;5.846;2023-02-22T08:39:52;121.07;;;56.08;;
52786;SDS011;38661;53.152;5.846;2023-02-22T08:42:20;130.13;;;58.20;;
52786;SDS011;38661;53.152;5.846;2023-02-22T08:44:46;133.43;;;62.03;;
52786;SDS011;38661;53.152;5.846;2023-02-22T08:47:12;123.50;;;58.05;;
52786;SDS011;38661;53.152;5.846;2023-02-22T08:49:37;133.57;;;59.25;;
52786;SDS011;38661;53.152;5.846;2023-02-22T08:52:03;127.22;;;56.60;;
52786;SDS011;38661;53.152;5.846;2023-02-22T08:54:29;133.48;;;58.75;;
52786;SDS011;38661;53.152;5.846;2023-02-22T08:56:55;132.65;;;59.13;;
52786;SDS011;38661;53.152;5.846;2023-02-22T08:59:20;122.80;;;55.35;;
52786;SDS011;38661;53.152;5.846;2023-02-22T09:01:46;133.70;;;60.38;;
52786;SDS011;38661;53.152;5.846;2023-02-22T09:04:12;126.63;;;58.35;;
52786;SDS011;38661;53.152;5.846;2023-02-22T09:06:41;131.70;;;61.95;;
52786;SDS011;38661;53.152;5.846;2023-02-22T09:09:08;125.82;;;55.15;;
52786;SDS011;38661;53.152;5.846;2023-02-22T09:11:34;134.00;;;59.83;;
52786;SDS011;38661;53.152;5.846;2023-02-22T09:14:00;139.45;;;59.85;;
52786;SDS011;38661;53.152;5.846;2023-02-22T09:16:26;125.75;;;54.88;;
52786;SDS011;38661;53.152;5.846;2023-02-22T09:18:51;125.03;;;53.90;;
52786;SDS011;38661;53.152;5.846;2023-02-22T09:21:17;131.15;;;60.15;;
52786;SDS011;38661;53.152;5.846;2023-02-22T09:23:45;136.70;;;56.92;;
52786;SDS011;38661;53.152;5.846;2023-02-22T09:26:11;132.52;;;60.80;;
52786;SDS011;38661;53.152;5.846;2023-02-22T09:28:40;138.27;;;59.88;;
52786;SDS011;38661;53.152;5.846;2023-02-22T09:31:06;130.95;;;58.38;;
52786;SDS011;38661;53.152;5.846;2023-02-22T09:33:32;130.32;;;58.13;;
52786;SDS011;38661;53.152;5.846;2023-02-22T09:35:57;137.07;;;60.35;;
52786;SDS011;38661;53.152;5.846;2023-02-22T09:38:24;128.85;;;57.65;;
52786;SDS011;38661;53.152;5.846;2023-02-22T09:40:51;122.75;;;56.42;;
52786;SDS011;38661;53.152;5.846;2023-02-22T09:43:32;128.70;;;56.25;;
52786;SDS011;38661;53.152;5.846;2023-02-22T09:46:22;136.98;;;60.58;;
52786;SDS011;38661;53.152;5.846;2023-02-22T09:51:48;123.25;;;57.10;;
52786;SDS011;38661;53.152;5.846;2023-02-22T09:54:33;137.43;;;59.00;;
52786;SDS011;38661;53.152;5.846;2023-02-22T09:57:04;125.13;;;54.88;;
52786;SDS011;38661;53.152;5.846;2023-02-22T10:00:21;131.35;;;59.25;;
52786;SDS011;38661;53.152;5.846;2023-02-22T10:02:37;123.88;;;55.20;;
52786;SDS011;38661;53.152;5.846;2023-02-22T10:05:35;124.80;;;56.47;;
52786;SDS011;38661;53.152;5.846;2023-02-22T10:08:04;121.47;;;51.60;;
52786;SDS011;38661;53.152;5.846;2023-02-22T10:10:38;121.00;;;54.70;;
52786;SDS011;38661;53.152;5.846;2023-02-22T10:13:12;120.45;;;54.95;;
52786;SDS011;38661;53.152;5.846;2023-02-22T10:18:44;112.38;;;50.50;;
52786;SDS011;38661;53.152;5.846;2023-02-22T10:24:45;122.25;;;53.53;;
52786;SDS011;38661;53.152;5.846;2023-02-22T10:27:38;121.93;;;53.95;;
52786;SDS011;38661;53.152;5.846;2023-02-22T10:32:45;117.65;;;52.00;;
52786;SDS011;38661;53.152;5.846;2023-02-22T10:35:19;114.53;;;52.70;;
52786;SDS011;38661;53.152;5.846;2023-02-22T10:37:55;128.00;;;60.50;;
52786;SDS011;38661;53.152;5.846;2023-02-22T10:40:24;116.30;;;51.40;;
52786;SDS011;38661;53.152;5.846;2023-02-22T10:43:00;117.78;;;54.00;;
52786;SDS011;38661;53.152;5.846;2023-02-22T10:45:31;108.53;;;50.63;;
52786;SDS011;38661;53.152;5.846;2023-02-22T10:47:59;110.63;;;54.13;;
52786;SDS011;38661;53.152;5.846;2023-02-22T10:50:32;114.05;;;52.35;;
52786;SDS011;38661;53.152;5.846;2023-02-22T10:53:00;103.10;;;50.03;;
52786;SDS011;38661;53.152;5.846;2023-02-22T10:55:26;116.03;;;51.17;;
52786;SDS011;38661;53.152;5.846;2023-02-22T10:57:58;114.00;;;51.90;;
52786;SDS011;38661;53.152;5.846;2023-02-22T11:03:02;110.22;;;50.10;;
52786;SDS011;38661;53.152;5.846;2023-02-22T11:05:49;112.78;;;50.33;;
52786;SDS011;38661;53.152;5.846;2023-02-22T11:10:45;111.13;;;49.70;;
52786;SDS011;38661;53.152;5.846;2023-02-22T11:13:16;103.55;;;48.78;;
52786;SDS011;38661;53.152;5.846;2023-02-22T11:15:59;110.03;;;49.70;;
52786;SDS011;38661;53.152;5.846;2023-02-22T11:18:41;106.57;;;48.60;;
52786;SDS011;38661;53.152;5.846;2023-02-22T11:21:07;106.63;;;49.33;;
52786;SDS011;38661;53.152;5.846;2023-02-22T11:23:36;108.25;;;49.80;;
52786;SDS011;38661;53.152;5.846;2023-02-22T11:26:07;111.55;;;49.97;;
52786;SDS011;38661;53.152;5.846;2023-02-22T11:28:40;105.60;;;46.78;;
52786;SDS011;38661;53.152;5.846;2023-02-22T11:31:14;102.57;;;48.30;;
52786;SDS011;38661;53.152;5.846;2023-02-22T11:33:48;108.32;;;50.55;;
52786;SDS011;38661;53.152;5.846;2023-02-22T11:36:41;106.00;;;52.05;;
52786;SDS011;38661;53.152;5.846;2023-02-22T11:41:50;104.30;;;49.13;;
52786;SDS011;38661;53.152;5.846;2023-02-22T11:44:26;108.18;;;48.47;;
52786;SDS011;38661;53.152;5.846;2023-02-22T11:46:57;107.70;;;47.92;;
52786;SDS011;38661;53.152;5.846;2023-02-22T11:57:33;109.70;;;50.00;;
52786;SDS011;38661;53.152;5.846;2023-02-22T12:03:25;99.88;;;46.80;;
52786;SDS011;38661;53.152;5.846;2023-02-22T12:08:49;96.03;;;45.13;;
52786;SDS011;38661;53.152;5.846;2023-02-22T12:14:08;98.22;;;45.30;;
52786;SDS011;38661;53.152;5.846;2023-02-22T12:19:48;102.82;;;46.83;;
52786;SDS011;38661;53.152;5.846;2023-02-22T12:25:20;101.15;;;44.45;;
52786;SDS011;38661;53.152;5.846;2023-02-22T12:27:50;107.25;;;49.70;;
52786;SDS011;38661;53.152;5.846;2023-02-22T12:30:21;109.30;;;50.67;;
52786;SDS011;38661;53.152;5.846;2023-02-22T12:33:35;111.13;;;55.08;;
52786;SDS011;38661;53.152;5.846;2023-02-22T12:35:52;127.90;;;58.53;;
52786;SDS011;38661;53.152;5.846;2023-02-22T12:46:30;101.10;;;44.90;;
52786;SDS011;38661;53.152;5.846;2023-02-22T12:51:59;105.00;;;44.15;;
52786;SDS011;38661;53.152;5.846;2023-02-22T12:54:48;100.82;;;44.70;;
52786;SDS011;38661;53.152;5.846;2023-02-22T12:57:56;102.35;;;46.60;;
52786;SDS011;38661;53.152;5.846;2023-02-22T13:00:50;108.35;;;46.20;;
52786;SDS011;38661;53.152;5.846;2023-02-22T13:03:30;111.53;;;45.80;;
52786;SDS011;38661;53.152;5.846;2023-02-22T13:12:11;115.57;;;47.75;;
52786;SDS011;38661;53.152;5.846;2023-02-22T13:26:58;108.70;;;45.42;;
52786;SDS011;38661;53.152;5.846;2023-02-22T13:32:03;112.18;;;47.10;;
52786;SDS011;38661;53.152;5.846;2023-02-22T13:51:37;109.13;;;45.35;;
52786;SDS011;38661;53.152;5.846;2023-02-22T13:54:25;109.50;;;45.72;;
52786;SDS011;38661;53.152;5.846;2023-02-22T13:57:01;113.53;;;47.75;;
52786;SDS011;38661;53.152;5.846;2023-02-22T14:01:56;109.90;;;45.33;;
52786;SDS011;38661;53.152;5.846;2023-02-22T14:06:55;108.72;;;45.47;;
52786;SDS011;38661;53.152;5.846;2023-02-22T14:17:35;95.38;;;40.65;;
52786;SDS011;38661;53.152;5.846;2023-02-22T14:20:03;94.85;;;40.17;;
52786;SDS011;38661;53.152;5.846;2023-02-22T14:22:44;99.78;;;42.80;;
52786;SDS011;38661;53.152;5.846;2023-02-22T14:25:28;97.30;;;41.22;;
52786;SDS011;38661;53.152;5.846;2023-02-22T14:28:00;104.85;;;42.35;;
52786;SDS011;38661;53.152;5.846;2023-02-22T14:30:29;98.40;;;41.13;;
52786;SDS011;38661;53.152;5.846;2023-02-22T14:32:57;105.32;;;43.08;;
52786;SDS011;38661;53.152;5.846;2023-02-22T14:35:24;100.97;;;39.35;;
52786;SDS011;38661;53.152;5.846;2023-02-22T14:38:02;102.28;;;39.90;;
52786;SDS011;38661;53.152;5.846;2023-02-22T14:40:32;92.57;;;38.55;;
52786;SDS011;38661;53.152;5.846;2023-02-22T14:43:11;91.70;;;39.45;;
52786;SDS011;38661;53.152;5.846;2023-02-22T14:45:54;90.45;;;39.83;;
52786;SDS011;38661;53.152;5.846;2023-02-22T14:51:22;86.40;;;39.60;;
52786;SDS011;38661;53.152;5.846;2023-02-22T14:54:09;90.18;;;41.63;;
52786;SDS011;38661;53.152;5.846;2023-02-22T14:56:57;90.00;;;39.47;;
52786;SDS011;38661;53.152;5.846;2023-02-22T14:59:25;90.18;;;41.33;;
52786;SDS011;38661;53.152;5.846;2023-02-22T15:02:05;88.60;;;40.92;;
52786;SDS011;38661;53.152;5.846;2023-02-22T15:04:34;95.10;;;40.47;;
52786;SDS011;38661;53.152;5.846;2023-02-22T15:07:06;88.65;;;38.83;;
52786;SDS011;38661;53.152;5.846;2023-02-22T15:09:43;88.18;;;38.53;;
52786;SDS011;38661;53.152;5.846;2023-02-22T15:12:15;84.38;;;36.33;;
52786;SDS011;38661;53.152;5.846;2023-02-22T15:15:09;92.15;;;40.08;;
52786;SDS011;38661;53.152;5.846;2023-02-22T15:17:46;85.00;;;37.88;;
52786;SDS011;38661;53.152;5.846;2023-02-22T15:20:22;88.00;;;38.45;;
52786;SDS011;38661;53.152;5.846;2023-02-22T15:22:49;80.47;;;38.72;;
52786;SDS011;38661;53.152;5.846;2023-02-22T15:25:26;83.00;;;39.58;;
52786;SDS011;38661;53.152;5.846;2023-02-22T15:27:55;81.72;;;37.17;;
52786;SDS011;38661;53.152;5.846;2023-02-22T15:30:27;91.75;;;41.78;;
52786;SDS011;38661;53.152;5.846;2023-02-22T15:32:54;82.00;;;35.92;;
52786;SDS011;38661;53.152;5.846;2023-02-22T15:38:00;88.77;;;38.70;;
52786;SDS011;38661;53.152;5.846;2023-02-22T15:40:30;89.75;;;42.78;;
52786;SDS011;38661;53.152;5.846;2023-02-22T15:42:59;386.70;;;247.52;;
52786;SDS011;38661;53.152;5.846;2023-02-22T15:45:32;190.02;;;119.28;;
52786;SDS011;38661;53.152;5.846;2023-02-22T15:47:58;123.95;;;69.78;;
52786;SDS011;38661;53.152;5.846;2023-02-22T15:50:25;127.55;;;71.65;;
52786;SDS011;38661;53.152;5.846;2023-02-22T15:53:04;145.52;;;92.82;;
52786;SDS011;38661;53.152;5.846;2023-02-22T15:55:59;113.05;;;58.20;;
52786;SDS011;38661;53.152;5.846;2023-02-22T15:58:27;101.13;;;51.22;;
52786;SDS011;38661;53.152;5.846;2023-02-22T16:01:07;84.57;;;38.78;;
52786;SDS011;38661;53.152;5.846;2023-02-22T16:03:47;98.57;;;50.08;;
52786;SDS011;38661;53.152;5.846;2023-02-22T16:08:52;112.38;;;43.78;;
52786;SDS011;38661;53.152;5.846;2023-02-22T16:11:28;115.35;;;57.17;;
52786;SDS011;38661;53.152;5.846;2023-02-22T16:14:00;130.23;;;71.20;;
52786;SDS011;38661;53.152;5.846;2023-02-22T16:22:01;96.18;;;46.65;;
52786;SDS011;38661;53.152;5.846;2023-02-22T16:24:31;141.30;;;79.18;;
52786;SDS011;38661;53.152;5.846;2023-02-22T16:29:41;91.53;;;41.47;;
52786;SDS011;38661;53.152;5.846;2023-02-22T16:32:07;121.50;;;58.88;;
52786;SDS011;38661;53.152;5.846;2023-02-22T16:34:33;98.80;;;47.78;;
52786;SDS011;38661;53.152;5.846;2023-02-22T16:36:58;99.45;;;44.67;;
52786;SDS011;38661;53.152;5.846;2023-02-22T16:39:26;96.88;;;47.05;;
52786;SDS011;38661;53.152;5.846;2023-02-22T16:41:55;110.45;;;51.60;;
52786;SDS011;38661;53.152;5.846;2023-02-22T16:44:22;100.90;;;48.83;;
52786;SDS011;38661;53.152;5.846;2023-02-22T16:46:53;108.05;;;54.67;;
52786;SDS011;38661;53.152;5.846;2023-02-22T16:49:19;100.97;;;53.83;;
52786;SDS011;38661;53.152;5.846;2023-02-22T16:51:51;96.57;;;41.63;;
52786;SDS011;38661;53.152;5.846;2023-02-22T16:54:24;93.53;;;40.03;;
52786;SDS011;38661;53.152;5.846;2023-02-22T16:56:53;96.40;;;40.33;;
52786;SDS011;38661;53.152;5.846;2023-02-22T16:59:21;92.28;;;40.55;;
52786;SDS011;38661;53.152;5.846;2023-02-22T17:01:47;95.07;;;43.65;;